sensor_id;sensor_type;location;lat;lon;timestamp;P1;durP1;ratioP1;P2;durP2;ratioP2
21589;SDS011;10957;50.968;6.828;2023-05-14T00:04:43;4.68;;;4.47;;
21589;SDS011;10957;50.968;6.828;2023-05-14T00:09:44;4.07;;;3.88;;
21589;SDS011;10957;50.968;6.828;2023-05-14T00:14:45;3.80;;;3.60;;
21589;SDS011;10957;50.968;6.828;2023-05-14T00:19:47;4.18;;;3.97;;
21589;SDS011;10957;50.968;6.828;2023-05-14T00:24:48;3.70;;;3.60;;
21589;SDS011;10957;50.968;6.828;2023-05-14T00:29:49;3.72;;;3.63;;
21589;SDS011;10957;50.968;6.828;2023-05-14T00:34:51;4.25;;;4.05;;
21589;SDS011;10957;50.968;6.828;2023-05-14T00:39:52;3.67;;;3.58;;
21589;SDS011;10957;50.968;6.828;2023-05-14T00:44:54;3.90;;;3.78;;
21589;SDS011;10957;50.968;6.828;2023-05-14T00:49:55;3.50;;;3.40;;
21589;SDS011;10957;50.968;6.828;2023-05-14T00:54:56;3.70;;;3.60;;
21589;SDS011;10957;50.968;6.828;2023-05-14T00:59:59;4.18;;;3.95;;
21589;SDS011;10957;50.968;6.828;2023-05-14T01:05:01;4.57;;;4.38;;
21589;SDS011;10957;50.968;6.828;2023-05-14T01:10:18;4.40;;;4.20;;
21589;SDS011;10957;50.968;6.828;2023-05-14T01:15:27;4.47;;;4.28;;
21589;SDS011;10957;50.968;6.828;2023-05-14T01:20:31;3.60;;;3.50;;
21589;SDS011;10957;50.968;6.828;2023-05-14T01:25:33;4.30;;;4.10;;
21589;SDS011;10957;50.968;6.828;2023-05-14T01:30:36;3.60;;;3.50;;
21589;SDS011;10957;50.968;6.828;2023-05-14T01:36:08;3.78;;;3.67;;
21589;SDS011;10957;50.968;6.828;2023-05-14T01:41:10;4.03;;;3.83;;
21589;SDS011;10957;50.968;6.828;2023-05-14T01:46:16;4.60;;;4.40;;
21589;SDS011;10957;50.968;6.828;2023-05-14T01:51:19;3.85;;;3.67;;
21589;SDS011;10957;50.968;6.828;2023-05-14T01:56:21;4.18;;;3.97;;
21589;SDS011;10957;50.968;6.828;2023-05-14T02:01:23;3.78;;;3.63;;
21589;SDS011;10957;50.968;6.828;2023-05-14T02:06:25;3.90;;;3.70;;
21589;SDS011;10957;50.968;6.828;2023-05-14T02:11:29;4.32;;;4.13;;
21589;SDS011;10957;50.968;6.828;2023-05-14T02:16:31;3.90;;;3.70;;
21589;SDS011;10957;50.968;6.828;2023-05-14T02:21:32;3.45;;;3.35;;
21589;SDS011;10957;50.968;6.828;2023-05-14T02:26:33;3.65;;;3.50;;
21589;SDS011;10957;50.968;6.828;2023-05-14T02:31:35;4.40;;;4.20;;
21589;SDS011;10957;50.968;6.828;2023-05-14T02:36:36;3.47;;;3.38;;
21589;SDS011;10957;50.968;6.828;2023-05-14T02:41:37;3.33;;;3.22;;
21589;SDS011;10957;50.968;6.828;2023-05-14T02:46:39;3.83;;;3.63;;
21589;SDS011;10957;50.968;6.828;2023-05-14T02:51:40;4.05;;;3.78;;
21589;SDS011;10957;50.968;6.828;2023-05-14T02:56:42;5.47;;;5.15;;
21589;SDS011;10957;50.968;6.828;2023-05-14T03:01:43;5.35;;;4.70;;
21589;SDS011;10957;50.968;6.828;2023-05-14T03:06:44;4.85;;;4.43;;
21589;SDS011;10957;50.968;6.828;2023-05-14T03:11:46;4.28;;;4.00;;
21589;SDS011;10957;50.968;6.828;2023-05-14T03:16:47;3.90;;;3.70;;
21589;SDS011;10957;50.968;6.828;2023-05-14T03:27:15;4.35;;;4.15;;
21589;SDS011;10957;50.968;6.828;2023-05-14T03:32:16;3.67;;;3.55;;
21589;SDS011;10957;50.968;6.828;2023-05-14T03:37:18;3.88;;;3.78;;
21589;SDS011;10957;50.968;6.828;2023-05-14T03:42:22;4.15;;;3.95;;
21589;SDS011;10957;50.968;6.828;2023-05-14T03:47:24;5.20;;;4.90;;
21589;SDS011;10957;50.968;6.828;2023-05-14T03:52:29;4.20;;;4.00;;
21589;SDS011;10957;50.968;6.828;2023-05-14T03:57:30;4.55;;;4.35;;
21589;SDS011;10957;50.968;6.828;2023-05-14T04:02:31;4.75;;;4.55;;
21589;SDS011;10957;50.968;6.828;2023-05-14T04:07:33;4.40;;;4.20;;
21589;SDS011;10957;50.968;6.828;2023-05-14T04:12:34;3.50;;;3.40;;
21589;SDS011;10957;50.968;6.828;2023-05-14T04:17:36;4.00;;;3.80;;
21589;SDS011;10957;50.968;6.828;2023-05-14T04:22:38;3.70;;;3.60;;
21589;SDS011;10957;50.968;6.828;2023-05-14T04:27:39;3.95;;;3.75;;
21589;SDS011;10957;50.968;6.828;2023-05-14T04:32:40;4.93;;;4.63;;
21589;SDS011;10957;50.968;6.828;2023-05-14T04:37:42;4.15;;;3.88;;
21589;SDS011;10957;50.968;6.828;2023-05-14T04:42:43;4.18;;;3.97;;
21589;SDS011;10957;50.968;6.828;2023-05-14T04:47:44;3.90;;;3.70;;
21589;SDS011;10957;50.968;6.828;2023-05-14T04:52:46;4.03;;;3.83;;
21589;SDS011;10957;50.968;6.828;2023-05-14T04:57:47;4.60;;;4.30;;
21589;SDS011;10957;50.968;6.828;2023-05-14T05:02:48;3.50;;;3.30;;
21589;SDS011;10957;50.968;6.828;2023-05-14T05:07:50;3.90;;;3.70;;
21589;SDS011;10957;50.968;6.828;2023-05-14T05:12:51;3.67;;;3.50;;
21589;SDS011;10957;50.968;6.828;2023-05-14T05:17:53;3.35;;;3.25;;
21589;SDS011;10957;50.968;6.828;2023-05-14T05:22:54;3.85;;;3.55;;
21589;SDS011;10957;50.968;6.828;2023-05-14T05:27:55;3.63;;;3.42;;
21589;SDS011;10957;50.968;6.828;2023-05-14T05:32:57;3.63;;;3.45;;
21589;SDS011;10957;50.968;6.828;2023-05-14T05:37:58;3.30;;;3.20;;
21589;SDS011;10957;50.968;6.828;2023-05-14T05:42:59;4.05;;;3.85;;
21589;SDS011;10957;50.968;6.828;2023-05-14T05:48:01;3.97;;;3.78;;
21589;SDS011;10957;50.968;6.828;2023-05-14T05:53:02;4.18;;;3.85;;
21589;SDS011;10957;50.968;6.828;2023-05-14T05:58:03;4.15;;;3.95;;
21589;SDS011;10957;50.968;6.828;2023-05-14T06:03:06;4.43;;;4.22;;
21589;SDS011;10957;50.968;6.828;2023-05-14T06:08:07;4.95;;;4.65;;
21589;SDS011;10957;50.968;6.828;2023-05-14T06:13:09;3.65;;;3.50;;
21589;SDS011;10957;50.968;6.828;2023-05-14T06:18:11;4.07;;;3.88;;
21589;SDS011;10957;50.968;6.828;2023-05-14T06:23:12;3.45;;;3.28;;
21589;SDS011;10957;50.968;6.828;2023-05-14T06:28:13;3.80;;;3.60;;
21589;SDS011;10957;50.968;6.828;2023-05-14T06:33:15;3.42;;;3.22;;
21589;SDS011;10957;50.968;6.828;2023-05-14T06:38:16;3.03;;;2.92;;
21589;SDS011;10957;50.968;6.828;2023-05-14T06:43:17;5.00;;;4.60;;
21589;SDS011;10957;50.968;6.828;2023-05-14T06:48:19;3.72;;;3.38;;
21589;SDS011;10957;50.968;6.828;2023-05-14T06:53:20;3.75;;;3.33;;
21589;SDS011;10957;50.968;6.828;2023-05-14T06:58:21;3.65;;;3.40;;
21589;SDS011;10957;50.968;6.828;2023-05-14T07:03:23;3.45;;;3.25;;
21589;SDS011;10957;50.968;6.828;2023-05-14T07:08:24;4.70;;;4.25;;
21589;SDS011;10957;50.968;6.828;2023-05-14T07:13:26;3.83;;;3.63;;
21589;SDS011;10957;50.968;6.828;2023-05-14T07:18:30;4.18;;;3.72;;
21589;SDS011;10957;50.968;6.828;2023-05-14T07:23:31;3.63;;;3.42;;
21589;SDS011;10957;50.968;6.828;2023-05-14T07:28:35;4.60;;;4.25;;
21589;SDS011;10957;50.968;6.828;2023-05-14T07:33:37;4.22;;;3.92;;
21589;SDS011;10957;50.968;6.828;2023-05-14T07:38:38;7.65;;;3.25;;
21589;SDS011;10957;50.968;6.828;2023-05-14T07:43:39;5.03;;;4.63;;
21589;SDS011;10957;50.968;6.828;2023-05-14T07:48:41;5.40;;;4.90;;
21589;SDS011;10957;50.968;6.828;2023-05-14T07:53:42;9.32;;;3.60;;
21589;SDS011;10957;50.968;6.828;2023-05-14T07:58:43;3.38;;;3.22;;
21589;SDS011;10957;50.968;6.828;2023-05-14T08:03:44;4.10;;;3.80;;
21589;SDS011;10957;50.968;6.828;2023-05-14T08:08:46;3.42;;;3.20;;
21589;SDS011;10957;50.968;6.828;2023-05-14T08:13:47;3.60;;;3.30;;
21589;SDS011;10957;50.968;6.828;2023-05-14T08:18:49;3.50;;;3.30;;
21589;SDS011;10957;50.968;6.828;2023-05-14T08:23:50;4.57;;;3.25;;
21589;SDS011;10957;50.968;6.828;2023-05-14T08:28:52;3.88;;;3.67;;
21589;SDS011;10957;50.968;6.828;2023-05-14T08:33:54;4.10;;;3.83;;
21589;SDS011;10957;50.968;6.828;2023-05-14T08:38:55;3.67;;;3.47;;
21589;SDS011;10957;50.968;6.828;2023-05-14T08:44:07;3.63;;;3.45;;
21589;SDS011;10957;50.968;6.828;2023-05-14T08:49:28;3.65;;;3.45;;
21589;SDS011;10957;50.968;6.828;2023-05-14T08:54:36;4.03;;;3.70;;
21589;SDS011;10957;50.968;6.828;2023-05-14T08:59:38;3.92;;;3.63;;
21589;SDS011;10957;50.968;6.828;2023-05-14T09:04:39;3.80;;;3.60;;
21589;SDS011;10957;50.968;6.828;2023-05-14T09:09:41;4.13;;;3.92;;
21589;SDS011;10957;50.968;6.828;2023-05-14T09:14:44;3.83;;;3.63;;
21589;SDS011;10957;50.968;6.828;2023-05-14T09:19:47;4.03;;;3.78;;
21589;SDS011;10957;50.968;6.828;2023-05-14T09:25:02;4.35;;;4.03;;
21589;SDS011;10957;50.968;6.828;2023-05-14T09:30:09;3.78;;;3.58;;
21589;SDS011;10957;50.968;6.828;2023-05-14T09:35:13;5.28;;;4.78;;
21589;SDS011;10957;50.968;6.828;2023-05-14T09:40:20;4.78;;;4.50;;
21589;SDS011;10957;50.968;6.828;2023-05-14T09:45:23;3.45;;;3.25;;
21589;SDS011;10957;50.968;6.828;2023-05-14T09:50:24;3.75;;;3.55;;
21589;SDS011;10957;50.968;6.828;2023-05-14T09:55:25;4.32;;;4.03;;
21589;SDS011;10957;50.968;6.828;2023-05-14T10:00:28;4.25;;;4.03;;
21589;SDS011;10957;50.968;6.828;2023-05-14T10:05:34;3.53;;;3.35;;
21589;SDS011;10957;50.968;6.828;2023-05-14T10:10:36;9.68;;;4.63;;
21589;SDS011;10957;50.968;6.828;2023-05-14T10:20:43;4.10;;;3.80;;
21589;SDS011;10957;50.968;6.828;2023-05-14T10:25:48;8.10;;;5.25;;
21589;SDS011;10957;50.968;6.828;2023-05-14T10:30:49;3.83;;;3.63;;
21589;SDS011;10957;50.968;6.828;2023-05-14T10:36:01;3.85;;;3.55;;
21589;SDS011;10957;50.968;6.828;2023-05-14T10:41:05;4.32;;;4.03;;
21589;SDS011;10957;50.968;6.828;2023-05-14T10:46:12;4.38;;;3.95;;
21589;SDS011;10957;50.968;6.828;2023-05-14T10:51:14;3.85;;;3.65;;
21589;SDS011;10957;50.968;6.828;2023-05-14T10:56:17;3.83;;;3.63;;
21589;SDS011;10957;50.968;6.828;2023-05-14T11:01:19;3.47;;;3.17;;
21589;SDS011;10957;50.968;6.828;2023-05-14T11:06:23;2.97;;;2.78;;
21589;SDS011;10957;50.968;6.828;2023-05-14T11:11:26;3.15;;;3.00;;
21589;SDS011;10957;50.968;6.828;2023-05-14T11:16:28;3.13;;;2.95;;
21589;SDS011;10957;50.968;6.828;2023-05-14T11:21:30;4.13;;;3.83;;
21589;SDS011;10957;50.968;6.828;2023-05-14T11:26:32;3.75;;;3.35;;
21589;SDS011;10957;50.968;6.828;2023-05-14T11:31:34;3.53;;;3.22;;
21589;SDS011;10957;50.968;6.828;2023-05-14T11:36:35;4.25;;;3.85;;
21589;SDS011;10957;50.968;6.828;2023-05-14T11:41:42;3.47;;;3.28;;
21589;SDS011;10957;50.968;6.828;2023-05-14T11:46:52;5.80;;;3.90;;
21589;SDS011;10957;50.968;6.828;2023-05-14T11:51:58;3.63;;;3.40;;
21589;SDS011;10957;50.968;6.828;2023-05-14T11:57:08;3.95;;;3.65;;
21589;SDS011;10957;50.968;6.828;2023-05-14T12:02:17;3.15;;;2.95;;
21589;SDS011;10957;50.968;6.828;2023-05-14T12:07:22;2.90;;;2.80;;
21589;SDS011;10957;50.968;6.828;2023-05-14T12:12:23;3.78;;;3.53;;
21589;SDS011;10957;50.968;6.828;2023-05-14T12:17:29;2.80;;;2.60;;
21589;SDS011;10957;50.968;6.828;2023-05-14T12:23:16;3.10;;;2.90;;
21589;SDS011;10957;50.968;6.828;2023-05-14T12:28:24;3.53;;;3.33;;
21589;SDS011;10957;50.968;6.828;2023-05-14T12:33:27;3.35;;;3.05;;
21589;SDS011;10957;50.968;6.828;2023-05-14T12:38:28;2.60;;;2.50;;
21589;SDS011;10957;50.968;6.828;2023-05-14T12:43:31;3.10;;;2.67;;
21589;SDS011;10957;50.968;6.828;2023-05-14T12:48:32;2.90;;;2.80;;
21589;SDS011;10957;50.968;6.828;2023-05-14T12:53:34;3.00;;;2.88;;
21589;SDS011;10957;50.968;6.828;2023-05-14T12:58:35;3.47;;;3.28;;
21589;SDS011;10957;50.968;6.828;2023-05-14T13:03:36;11.10;;;3.20;;
21589;SDS011;10957;50.968;6.828;2023-05-14T13:08:38;3.28;;;3.17;;
21589;SDS011;10957;50.968;6.828;2023-05-14T13:13:40;3.20;;;3.00;;
21589;SDS011;10957;50.968;6.828;2023-05-14T13:18:41;3.63;;;3.40;;
21589;SDS011;10957;50.968;6.828;2023-05-14T13:23:42;3.05;;;2.95;;
21589;SDS011;10957;50.968;6.828;2023-05-14T13:28:43;3.30;;;3.10;;
21589;SDS011;10957;50.968;6.828;2023-05-14T13:33:45;3.60;;;3.40;;
21589;SDS011;10957;50.968;6.828;2023-05-14T13:38:46;4.75;;;3.60;;
21589;SDS011;10957;50.968;6.828;2023-05-14T13:43:48;3.58;;;3.38;;
21589;SDS011;10957;50.968;6.828;2023-05-14T13:48:49;6.97;;;3.10;;
21589;SDS011;10957;50.968;6.828;2023-05-14T13:53:50;3.25;;;3.05;;
21589;SDS011;10957;50.968;6.828;2023-05-14T13:58:51;3.40;;;3.20;;
21589;SDS011;10957;50.968;6.828;2023-05-14T14:03:53;3.28;;;3.08;;
21589;SDS011;10957;50.968;6.828;2023-05-14T14:08:54;3.03;;;2.92;;
21589;SDS011;10957;50.968;6.828;2023-05-14T14:13:55;2.90;;;2.80;;
21589;SDS011;10957;50.968;6.828;2023-05-14T14:18:56;3.05;;;2.95;;
21589;SDS011;10957;50.968;6.828;2023-05-14T14:23:58;2.70;;;2.60;;
21589;SDS011;10957;50.968;6.828;2023-05-14T14:28:59;3.28;;;3.08;;
21589;SDS011;10957;50.968;6.828;2023-05-14T14:34:00;2.70;;;2.60;;
21589;SDS011;10957;50.968;6.828;2023-05-14T14:39:01;2.58;;;2.47;;
21589;SDS011;10957;50.968;6.828;2023-05-14T14:44:03;2.75;;;2.65;;
21589;SDS011;10957;50.968;6.828;2023-05-14T14:49:05;2.92;;;2.58;;
21589;SDS011;10957;50.968;6.828;2023-05-14T14:54:06;2.90;;;2.80;;
21589;SDS011;10957;50.968;6.828;2023-05-14T14:59:07;2.72;;;2.63;;
21589;SDS011;10957;50.968;6.828;2023-05-14T15:04:08;2.83;;;2.63;;
21589;SDS011;10957;50.968;6.828;2023-05-14T15:09:10;2.65;;;2.55;;
21589;SDS011;10957;50.968;6.828;2023-05-14T15:14:11;2.78;;;2.65;;
21589;SDS011;10957;50.968;6.828;2023-05-14T15:19:12;2.88;;;2.75;;
21589;SDS011;10957;50.968;6.828;2023-05-14T15:24:14;2.83;;;2.67;;
21589;SDS011;10957;50.968;6.828;2023-05-14T15:29:15;3.03;;;2.90;;
21589;SDS011;10957;50.968;6.828;2023-05-14T15:34:16;2.72;;;2.63;;
21589;SDS011;10957;50.968;6.828;2023-05-14T15:39:18;2.67;;;2.58;;
21589;SDS011;10957;50.968;6.828;2023-05-14T15:44:19;2.75;;;2.65;;
21589;SDS011;10957;50.968;6.828;2023-05-14T15:49:20;2.58;;;2.47;;
21589;SDS011;10957;50.968;6.828;2023-05-14T15:54:21;2.45;;;2.35;;
21589;SDS011;10957;50.968;6.828;2023-05-14T15:59:23;2.63;;;2.53;;
21589;SDS011;10957;50.968;6.828;2023-05-14T16:04:24;3.03;;;2.78;;
21589;SDS011;10957;50.968;6.828;2023-05-14T16:09:25;2.50;;;2.40;;
21589;SDS011;10957;50.968;6.828;2023-05-14T16:14:27;3.10;;;2.70;;
21589;SDS011;10957;50.968;6.828;2023-05-14T16:19:28;3.05;;;2.85;;
21589;SDS011;10957;50.968;6.828;2023-05-14T16:24:29;2.33;;;2.22;;
21589;SDS011;10957;50.968;6.828;2023-05-14T16:29:30;2.58;;;2.47;;
21589;SDS011;10957;50.968;6.828;2023-05-14T16:34:31;3.95;;;3.65;;
21589;SDS011;10957;50.968;6.828;2023-05-14T16:39:33;2.80;;;2.70;;
21589;SDS011;10957;50.968;6.828;2023-05-14T16:44:34;2.30;;;2.20;;
21589;SDS011;10957;50.968;6.828;2023-05-14T16:49:35;2.67;;;2.58;;
21589;SDS011;10957;50.968;6.828;2023-05-14T16:54:37;2.20;;;2.10;;
21589;SDS011;10957;50.968;6.828;2023-05-14T16:59:38;4.05;;;3.38;;
21589;SDS011;10957;50.968;6.828;2023-05-14T17:04:39;2.47;;;2.33;;
21589;SDS011;10957;50.968;6.828;2023-05-14T17:09:41;2.60;;;2.50;;
21589;SDS011;10957;50.968;6.828;2023-05-14T17:14:43;2.83;;;2.72;;
21589;SDS011;10957;50.968;6.828;2023-05-14T17:19:44;3.00;;;2.80;;
21589;SDS011;10957;50.968;6.828;2023-05-14T17:24:45;2.88;;;2.78;;
21589;SDS011;10957;50.968;6.828;2023-05-14T17:29:47;2.72;;;2.58;;
21589;SDS011;10957;50.968;6.828;2023-05-14T17:34:50;2.47;;;2.38;;
21589;SDS011;10957;50.968;6.828;2023-05-14T17:39:52;2.40;;;2.30;;
21589;SDS011;10957;50.968;6.828;2023-05-14T17:44:54;2.97;;;2.88;;
21589;SDS011;10957;50.968;6.828;2023-05-14T17:49:56;2.50;;;2.40;;
21589;SDS011;10957;50.968;6.828;2023-05-14T17:54:57;2.47;;;2.38;;
21589;SDS011;10957;50.968;6.828;2023-05-14T17:59:58;2.50;;;2.40;;
21589;SDS011;10957;50.968;6.828;2023-05-14T18:05:00;2.65;;;2.55;;
21589;SDS011;10957;50.968;6.828;2023-05-14T18:10:02;2.83;;;2.65;;
21589;SDS011;10957;50.968;6.828;2023-05-14T18:15:05;2.90;;;2.80;;
21589;SDS011;10957;50.968;6.828;2023-05-14T18:20:07;2.42;;;2.30;;
21589;SDS011;10957;50.968;6.828;2023-05-14T18:25:08;2.50;;;2.30;;
21589;SDS011;10957;50.968;6.828;2023-05-14T18:30:10;2.35;;;2.25;;
21589;SDS011;10957;50.968;6.828;2023-05-14T18:35:14;2.30;;;2.20;;
21589;SDS011;10957;50.968;6.828;2023-05-14T18:40:15;2.58;;;2.38;;
21589;SDS011;10957;50.968;6.828;2023-05-14T18:45:17;8.00;;;3.78;;
21589;SDS011;10957;50.968;6.828;2023-05-14T18:50:18;3.17;;;2.88;;
21589;SDS011;10957;50.968;6.828;2023-05-14T18:55:19;2.55;;;2.45;;
21589;SDS011;10957;50.968;6.828;2023-05-14T19:00:20;2.40;;;2.30;;
21589;SDS011;10957;50.968;6.828;2023-05-14T19:05:22;2.30;;;2.17;;
21589;SDS011;10957;50.968;6.828;2023-05-14T19:10:23;2.33;;;2.22;;
21589;SDS011;10957;50.968;6.828;2023-05-14T19:15:25;2.65;;;2.47;;
21589;SDS011;10957;50.968;6.828;2023-05-14T19:20:26;2.00;;;1.90;;
21589;SDS011;10957;50.968;6.828;2023-05-14T19:25:27;2.47;;;2.38;;
21589;SDS011;10957;50.968;6.828;2023-05-14T19:30:29;2.53;;;2.30;;
21589;SDS011;10957;50.968;6.828;2023-05-14T19:35:30;2.28;;;2.17;;
21589;SDS011;10957;50.968;6.828;2023-05-14T19:40:32;2.45;;;2.25;;
21589;SDS011;10957;50.968;6.828;2023-05-14T19:45:33;2.25;;;2.15;;
21589;SDS011;10957;50.968;6.828;2023-05-14T19:50:38;2.28;;;2.17;;
21589;SDS011;10957;50.968;6.828;2023-05-14T19:55:41;2.30;;;2.20;;
21589;SDS011;10957;50.968;6.828;2023-05-14T20:00:42;2.50;;;2.40;;
21589;SDS011;10957;50.968;6.828;2023-05-14T20:05:44;2.28;;;2.17;;
21589;SDS011;10957;50.968;6.828;2023-05-14T20:10:45;3.05;;;2.80;;
21589;SDS011;10957;50.968;6.828;2023-05-14T20:15:47;3.10;;;2.90;;
21589;SDS011;10957;50.968;6.828;2023-05-14T20:20:49;2.30;;;2.20;;
21589;SDS011;10957;50.968;6.828;2023-05-14T20:25:50;2.40;;;2.30;;
21589;SDS011;10957;50.968;6.828;2023-05-14T20:30:51;2.85;;;2.75;;
21589;SDS011;10957;50.968;6.828;2023-05-14T20:35:54;2.47;;;2.38;;
21589;SDS011;10957;50.968;6.828;2023-05-14T20:40:55;2.75;;;2.60;;
21589;SDS011;10957;50.968;6.828;2023-05-14T20:45:57;2.67;;;2.58;;
21589;SDS011;10957;50.968;6.828;2023-05-14T20:50:58;2.58;;;2.47;;
21589;SDS011;10957;50.968;6.828;2023-05-14T20:56:01;2.75;;;2.65;;
21589;SDS011;10957;50.968;6.828;2023-05-14T21:01:02;3.60;;;3.30;;
21589;SDS011;10957;50.968;6.828;2023-05-14T21:06:07;2.45;;;2.35;;
21589;SDS011;10957;50.968;6.828;2023-05-14T21:11:08;2.78;;;2.67;;
21589;SDS011;10957;50.968;6.828;2023-05-14T21:16:10;3.85;;;3.55;;
21589;SDS011;10957;50.968;6.828;2023-05-14T21:21:12;2.80;;;2.70;;
21589;SDS011;10957;50.968;6.828;2023-05-14T21:26:13;2.85;;;2.75;;
21589;SDS011;10957;50.968;6.828;2023-05-14T21:31:14;2.92;;;2.83;;
21589;SDS011;10957;50.968;6.828;2023-05-14T21:36:17;2.97;;;2.88;;
21589;SDS011;10957;50.968;6.828;2023-05-14T21:41:20;4.20;;;3.90;;
21589;SDS011;10957;50.968;6.828;2023-05-14T21:46:21;4.43;;;4.22;;
21589;SDS011;10957;50.968;6.828;2023-05-14T21:51:22;4.43;;;4.15;;
21589;SDS011;10957;50.968;6.828;2023-05-14T21:56:24;3.75;;;3.58;;
21589;SDS011;10957;50.968;6.828;2023-05-14T22:01:25;3.97;;;3.78;;
21589;SDS011;10957;50.968;6.828;2023-05-14T22:06:27;3.50;;;3.40;;
21589;SDS011;10957;50.968;6.828;2023-05-14T22:11:28;3.95;;;3.75;;
21589;SDS011;10957;50.968;6.828;2023-05-14T22:16:29;3.50;;;3.35;;
21589;SDS011;10957;50.968;6.828;2023-05-14T22:21:31;3.63;;;3.42;;
21589;SDS011;10957;50.968;6.828;2023-05-14T22:26:33;3.70;;;3.40;;
21589;SDS011;10957;50.968;6.828;2023-05-14T22:31:34;3.20;;;3.10;;
21589;SDS011;10957;50.968;6.828;2023-05-14T22:36:36;4.03;;;3.72;;
21589;SDS011;10957;50.968;6.828;2023-05-14T22:41:37;3.60;;;3.40;;
21589;SDS011;10957;50.968;6.828;2023-05-14T22:46:38;3.25;;;3.15;;
21589;SDS011;10957;50.968;6.828;2023-05-14T22:51:40;3.50;;;3.40;;
21589;SDS011;10957;50.968;6.828;2023-05-14T22:56:42;3.78;;;3.60;;
21589;SDS011;10957;50.968;6.828;2023-05-14T23:01:43;3.60;;;3.40;;
21589;SDS011;10957;50.968;6.828;2023-05-14T23:06:44;3.78;;;3.58;;
21589;SDS011;10957;50.968;6.828;2023-05-14T23:11:46;3.90;;;3.70;;
21589;SDS011;10957;50.968;6.828;2023-05-14T23:16:47;3.60;;;3.45;;
21589;SDS011;10957;50.968;6.828;2023-05-14T23:21:58;3.53;;;3.42;;
21589;SDS011;10957;50.968;6.828;2023-05-14T23:26:59;3.40;;;3.30;;
21589;SDS011;10957;50.968;6.828;2023-05-14T23:32:00;4.50;;;4.15;;
21589;SDS011;10957;50.968;6.828;2023-05-14T23:37:02;3.60;;;3.50;;
21589;SDS011;10957;50.968;6.828;2023-05-14T23:42:03;4.10;;;3.90;;
21589;SDS011;10957;50.968;6.828;2023-05-14T23:47:05;3.92;;;3.72;;
21589;SDS011;10957;50.968;6.828;2023-05-14T23:52:08;3.80;;;3.60;;
21589;SDS011;10957;50.968;6.828;2023-05-14T23:57:09;3.00;;;2.90;;
